createdAt,value
2023-05-04T00:02:26.631Z,12.64
2023-05-04T00:04:56.973Z,12.61
2023-05-04T00:07:26.918Z,12.58
2023-05-04T00:09:56.780Z,12.55
2023-05-04T00:12:29.795Z,12.46
2023-05-04T00:14:59.828Z,12.44
2023-05-04T00:17:29.983Z,12.40
2023-05-04T00:19:59.935Z,12.38
2023-05-04T00:22:29.935Z,12.37
2023-05-04T00:25:00.054Z,12.37
2023-05-04T00:27:32.797Z,12.34
2023-05-04T00:30:02.997Z,12.33
2023-05-04T00:32:36.520Z,12.29
2023-05-04T00:35:07.051Z,12.26
2023-05-04T00:37:37.273Z,12.23
2023-05-04T00:40:08.136Z,12.19
2023-05-04T00:42:40.780Z,12.14
2023-05-04T00:45:11.808Z,12.10
2023-05-04T00:47:41.906Z,12.02
2023-05-04T00:50:13.875Z,11.97
2023-05-04T00:52:44.878Z,11.92
2023-05-04T00:55:14.849Z,11.87
2023-05-04T00:57:47.634Z,11.81
2023-05-04T01:00:18.356Z,11.79
2023-05-04T01:02:48.511Z,11.75
2023-05-04T01:05:18.977Z,11.72
2023-05-04T01:08:00.142Z,11.67
2023-05-04T01:10:37.703Z,11.61
2023-05-04T01:13:14.146Z,11.58
2023-05-04T01:15:45.528Z,11.56
2023-05-04T01:18:17.004Z,11.50
2023-05-04T01:20:47.193Z,11.47
2023-05-04T01:23:19.940Z,11.47
2023-05-04T01:25:59.393Z,11.47
2023-05-04T01:28:36.955Z,11.47
2023-05-04T01:31:08.821Z,11.47
2023-05-04T01:33:40.949Z,11.46
2023-05-04T01:36:11.647Z,11.42
2023-05-04T01:38:45.157Z,11.39
2023-05-04T01:41:15.047Z,11.37
2023-05-04T01:43:45.420Z,11.36
2023-05-04T01:46:15.388Z,11.33
2023-05-04T01:48:45.475Z,11.31
2023-05-04T01:51:15.518Z,11.30
2023-05-04T01:53:48.066Z,11.28
2023-05-04T01:56:18.028Z,11.21
2023-05-04T01:58:48.006Z,11.18
2023-05-04T02:01:17.907Z,11.17
2023-05-04T02:03:47.957Z,11.16
2023-05-04T02:06:17.866Z,11.12
2023-05-04T02:08:51.244Z,11.09
2023-05-04T02:11:22.137Z,11.04
2023-05-04T02:13:52.108Z,11.01
2023-05-04T02:16:22.101Z,11.00
2023-05-04T02:18:52.533Z,10.98
2023-05-04T02:21:22.572Z,11.00
2023-05-04T02:23:55.303Z,10.98
2023-05-04T02:26:25.406Z,10.96
2023-05-04T02:28:55.735Z,10.94
2023-05-04T02:31:25.747Z,10.95
2023-05-04T02:33:56.011Z,10.94
2023-05-04T02:36:26.111Z,10.94
2023-05-04T02:39:00.835Z,10.93
2023-05-04T02:41:31.195Z,10.95
2023-05-04T02:44:01.250Z,10.94
2023-05-04T02:46:32.373Z,10.96
2023-05-04T02:49:02.303Z,10.97
2023-05-04T02:51:32.333Z,10.92
2023-05-04T02:54:04.944Z,10.91
2023-05-04T02:56:34.848Z,10.91
2023-05-04T02:59:05.066Z,10.91
2023-05-04T03:01:35.114Z,10.91
2023-05-04T03:04:05.131Z,10.91
2023-05-04T03:06:35.313Z,10.89
2023-05-04T03:09:07.880Z,10.88
2023-05-04T03:11:37.767Z,10.89
2023-05-04T03:14:07.736Z,10.89
2023-05-04T03:16:38.033Z,10.91
2023-05-04T03:19:08.035Z,10.93
2023-05-04T03:21:37.862Z,10.92
2023-05-04T03:24:11.675Z,10.89
2023-05-04T03:26:41.664Z,10.85
2023-05-04T03:29:11.868Z,10.81
2023-05-04T03:31:41.845Z,10.73
2023-05-04T03:34:12.937Z,10.70
2023-05-04T03:36:42.929Z,10.65
2023-05-04T03:39:16.654Z,10.61
2023-05-04T03:41:46.669Z,10.55
2023-05-04T03:44:16.643Z,10.51
2023-05-04T03:46:47.005Z,10.50
2023-05-04T03:49:17.152Z,10.49
2023-05-04T03:51:47.427Z,10.45
2023-05-04T03:54:20.097Z,10.42
2023-05-04T03:56:49.980Z,10.39
2023-05-04T03:59:19.936Z,10.36
2023-05-04T04:01:49.878Z,10.34
2023-05-04T04:04:19.753Z,10.31
2023-05-04T04:06:49.838Z,10.29
2023-05-04T04:09:22.548Z,10.28
2023-05-04T04:11:52.827Z,10.26
2023-05-04T04:14:22.804Z,10.26
2023-05-04T04:16:52.903Z,10.25
2023-05-04T04:19:22.945Z,10.24
2023-05-04T04:21:53.300Z,10.23
2023-05-04T04:24:26.161Z,10.20
2023-05-04T04:26:56.519Z,10.18
2023-05-04T04:29:26.559Z,10.15
2023-05-04T04:31:57.024Z,10.09
2023-05-04T04:34:27.346Z,10.09
2023-05-04T04:36:58.015Z,10.08
2023-05-04T04:39:30.869Z,10.09
2023-05-04T04:42:00.886Z,10.07
2023-05-04T04:44:30.993Z,10.05
2023-05-04T04:47:19.592Z,10.03
2023-05-04T04:49:49.671Z,10.02
2023-05-04T04:52:20.300Z,10.00
2023-05-04T04:54:52.837Z,9.98
2023-05-04T04:57:22.789Z,9.96
2023-05-04T04:59:53.480Z,9.94
2023-05-04T05:02:23.382Z,9.90
2023-05-04T05:04:54.390Z,9.89
2023-05-04T05:07:24.340Z,9.89
2023-05-04T05:09:57.069Z,9.88
2023-05-04T05:12:26.998Z,9.89
2023-05-04T05:14:57.058Z,9.90
2023-05-04T05:17:29.879Z,9.94
2023-05-04T05:19:59.877Z,9.95
2023-05-04T05:22:29.940Z,9.97
2023-05-04T05:25:02.495Z,10.01
2023-05-04T05:27:32.354Z,9.99
2023-05-04T05:30:02.594Z,10.01
2023-05-04T05:32:32.878Z,10.04
2023-05-04T05:35:02.789Z,10.13
2023-05-04T05:37:33.216Z,10.17
2023-05-04T05:40:08.252Z,10.21
2023-05-04T05:42:38.777Z,10.24
2023-05-04T05:45:10.402Z,10.31
2023-05-04T05:47:40.399Z,10.37
2023-05-04T05:50:12.619Z,10.38
2023-05-04T05:52:42.534Z,10.42
2023-05-04T05:55:15.580Z,10.49
2023-05-04T05:57:45.503Z,10.54
2023-05-04T06:00:17.074Z,10.58
2023-05-04T06:02:47.840Z,10.65
2023-05-04T06:05:18.129Z,10.69
2023-05-04T06:07:47.970Z,10.78
2023-05-04T06:10:20.735Z,10.82
2023-05-04T06:12:50.662Z,10.89
2023-05-04T06:15:20.982Z,10.99
2023-05-04T06:17:51.674Z,11.06
2023-05-04T06:20:21.762Z,11.18
2023-05-04T06:22:51.758Z,11.32
2023-05-04T06:25:24.359Z,11.42
2023-05-04T06:27:54.310Z,11.54
2023-05-04T06:30:25.420Z,11.76
2023-05-04T06:33:07.439Z,12.02
2023-05-04T06:35:37.324Z,12.25
2023-05-04T06:38:07.214Z,12.44
2023-05-04T06:40:39.796Z,12.67
2023-05-04T06:43:09.917Z,12.91
2023-05-04T06:45:40.356Z,13.09
2023-05-04T06:48:11.017Z,13.28
2023-05-04T06:50:42.545Z,13.58
2023-05-04T06:53:13.605Z,13.89
2023-05-04T06:55:46.090Z,14.20
2023-05-04T06:58:18.150Z,14.47
2023-05-04T07:00:47.954Z,14.67
2023-05-04T07:03:18.023Z,14.81
2023-05-04T07:05:49.056Z,14.95
2023-05-04T07:08:19.862Z,15.17
2023-05-04T07:10:52.256Z,15.41
2023-05-04T07:13:22.141Z,15.61
2023-05-04T07:15:52.072Z,15.79
2023-05-04T07:18:22.797Z,15.94
2023-05-04T07:20:54.265Z,16.12
2023-05-04T07:23:26.053Z,16.37
2023-05-04T07:25:58.877Z,16.59
2023-05-04T07:28:28.694Z,16.69
2023-05-04T07:30:58.634Z,16.85
2023-05-04T07:33:28.806Z,17.01
2023-05-04T07:36:02.310Z,17.16
2023-05-04T07:38:32.217Z,17.32
2023-05-04T07:41:04.694Z,17.44
2023-05-04T07:43:34.538Z,17.55
2023-05-04T07:46:04.632Z,17.72
2023-05-04T07:48:36.838Z,18.00
2023-05-04T07:51:07.051Z,18.18
2023-05-04T07:53:37.169Z,18.35
2023-05-04T07:56:14.661Z,18.50
2023-05-04T07:58:44.771Z,18.70
2023-05-04T08:01:14.859Z,18.95
2023-05-04T08:03:45.494Z,19.10
2023-05-04T08:06:15.958Z,19.24
2023-05-04T08:08:52.008Z,19.48
2023-05-04T08:11:26.009Z,19.69
2023-05-04T08:13:55.867Z,19.84
2023-05-04T08:16:26.103Z,19.97
2023-05-04T08:18:56.407Z,20.10
2023-05-04T08:21:26.623Z,20.19
2023-05-04T08:23:56.678Z,20.33
2023-05-04T08:26:29.397Z,20.49
2023-05-04T08:29:10.778Z,20.50
2023-05-04T08:31:41.356Z,20.52
2023-05-04T08:34:11.376Z,20.45
2023-05-04T08:36:41.478Z,20.58
2023-05-04T08:39:12.204Z,20.80
2023-05-04T08:41:45.067Z,21.03
2023-05-04T08:44:15.246Z,21.27
2023-05-04T08:46:46.117Z,21.44
2023-05-04T08:49:16.143Z,21.66
2023-05-04T08:51:46.391Z,21.84
2023-05-04T08:54:16.461Z,21.94
2023-05-04T08:56:49.885Z,22.08
2023-05-04T08:59:23.531Z,22.19
2023-05-04T09:01:57.624Z,22.29
2023-05-04T09:04:29.675Z,22.45
2023-05-04T09:06:59.810Z,22.61
2023-05-04T09:09:31.944Z,22.52
2023-05-04T09:12:04.541Z,22.63
2023-05-04T09:14:38.480Z,22.74
2023-05-04T09:17:17.813Z,22.84
2023-05-04T09:19:47.997Z,23.11
2023-05-04T09:22:18.729Z,23.33
2023-05-04T09:24:48.889Z,23.64
2023-05-04T09:27:22.532Z,23.89
2023-05-04T09:29:58.221Z,23.96
2023-05-04T09:32:28.749Z,24.00
2023-05-04T09:35:01.894Z,23.97
2023-05-04T09:37:32.019Z,23.98
2023-05-04T09:40:02.421Z,24.10
2023-05-04T09:42:34.880Z,24.31
2023-05-04T09:45:09.029Z,24.53
2023-05-04T09:47:39.883Z,24.55
2023-05-04T09:50:20.255Z,24.48
2023-05-04T09:52:51.627Z,24.67
2023-05-04T09:55:23.235Z,24.83
2023-05-04T09:57:56.128Z,24.88
2023-05-04T10:00:26.517Z,25.01
2023-05-04T10:02:57.218Z,25.09
2023-05-04T10:05:28.750Z,25.19
2023-05-04T10:08:02.427Z,25.22
2023-05-04T10:10:32.854Z,25.29
2023-05-04T10:13:05.438Z,25.34
2023-05-04T10:15:36.641Z,25.50
2023-05-04T10:18:17.902Z,25.51
2023-05-04T10:21:04.124Z,25.65
2023-05-04T10:23:49.203Z,25.70
2023-05-04T10:26:36.185Z,25.91
2023-05-04T10:31:49.089Z,26.20
2023-05-04T10:34:28.139Z,26.28
2023-05-04T10:36:59.116Z,26.27
2023-05-04T10:39:30.829Z,26.26
2023-05-04T10:42:05.135Z,26.49
2023-05-04T10:44:39.215Z,26.51
2023-05-04T10:47:10.338Z,26.56
2023-05-04T10:49:40.305Z,26.69
2023-05-04T10:52:16.360Z,26.54
2023-05-04T10:54:47.084Z,26.42
2023-05-04T10:57:17.741Z,26.46
2023-05-04T10:59:58.131Z,26.52
2023-05-04T11:02:31.096Z,26.68
2023-05-04T11:05:08.464Z,26.74
2023-05-04T11:07:40.058Z,26.87
2023-05-04T11:10:12.127Z,26.93
2023-05-04T11:12:42.052Z,27.13
2023-05-04T11:15:15.160Z,27.19
2023-05-04T11:17:49.279Z,27.28
2023-05-04T11:20:25.598Z,27.17
2023-05-04T11:22:56.258Z,27.28
2023-05-04T11:25:30.843Z,27.38
2023-05-04T11:28:01.745Z,27.51
2023-05-04T11:30:38.671Z,27.55
2023-05-04T11:33:15.474Z,27.52
2023-05-04T11:35:47.207Z,27.62
2023-05-04T11:38:21.973Z,27.76
2023-05-04T11:40:51.902Z,27.57
2023-05-04T11:43:22.443Z,27.42
2023-05-04T11:45:58.211Z,27.61
2023-05-04T11:48:28.614Z,27.86
2023-05-04T11:50:59.019Z,28.13
2023-05-04T11:53:29.391Z,28.33
2023-05-04T11:56:06.129Z,28.16
2023-05-04T11:58:36.148Z,28.28
2023-05-04T12:01:11.087Z,28.37
2023-05-04T12:03:52.418Z,28.39
2023-05-04T12:06:35.086Z,28.41
2023-05-04T12:09:05.739Z,28.27
2023-05-04T12:11:36.251Z,28.12
2023-05-04T12:14:10.067Z,28.15
2023-05-04T12:16:43.352Z,28.23
2023-05-04T12:19:14.459Z,28.33
2023-05-04T12:21:53.323Z,28.34
2023-05-04T12:24:25.088Z,28.49
2023-05-04T12:26:55.359Z,28.58
2023-05-04T12:29:25.255Z,28.82
2023-05-04T12:31:57.842Z,28.92
2023-05-04T12:34:27.777Z,29.04
2023-05-04T12:36:57.569Z,29.11
2023-05-04T12:39:29.047Z,29.03
2023-05-04T12:41:58.935Z,29.15
2023-05-04T12:44:29.227Z,29.12
2023-05-04T12:47:01.822Z,29.06
2023-05-04T12:49:31.741Z,29.19
2023-05-04T12:52:01.650Z,29.18
2023-05-04T12:54:31.589Z,29.23
2023-05-04T12:57:01.543Z,29.26
2023-05-04T12:59:31.508Z,29.23
2023-05-04T13:02:04.223Z,29.43
2023-05-04T13:04:34.030Z,29.49
2023-05-04T13:07:03.939Z,29.59
2023-05-04T13:09:34.128Z,29.56
2023-05-04T13:12:04.221Z,29.52
2023-05-04T13:14:39.292Z,29.49
2023-05-04T13:17:12.651Z,29.60
2023-05-04T13:19:42.513Z,29.63
2023-05-04T13:22:12.748Z,29.55
2023-05-04T13:24:42.927Z,29.43
2023-05-04T13:27:13.103Z,29.46
2023-05-04T13:29:43.115Z,29.37
2023-05-04T13:32:15.661Z,29.48
2023-05-04T13:34:47.234Z,29.61
2023-05-04T13:37:18.879Z,29.59
2023-05-04T13:39:48.978Z,29.62
2023-05-04T13:42:19.013Z,29.77
2023-05-04T13:44:49.016Z,29.90
2023-05-04T13:47:21.542Z,29.85
2023-05-04T13:49:51.652Z,29.82
2023-05-04T13:52:21.515Z,29.75
2023-05-04T13:54:51.608Z,29.72
2023-05-04T13:57:21.427Z,29.82
2023-05-04T14:00:02.829Z,30.01
2023-05-04T14:02:39.654Z,30.12
2023-05-04T14:05:10.519Z,30.07
2023-05-04T14:07:40.576Z,29.79
2023-05-04T14:10:11.972Z,29.81
2023-05-04T14:12:41.965Z,29.86
2023-05-04T14:15:12.868Z,30.03
2023-05-04T14:17:45.358Z,30.13
2023-05-04T14:20:16.401Z,30.10
2023-05-04T14:22:47.328Z,30.01
2023-05-04T14:25:17.320Z,29.93
2023-05-04T14:27:47.317Z,29.81
2023-05-04T14:30:17.909Z,29.84
2023-05-04T14:32:51.473Z,29.85
2023-05-04T14:35:21.552Z,29.93
2023-05-04T14:37:51.780Z,29.95
2023-05-04T14:40:21.683Z,29.87
2023-05-04T14:42:51.527Z,29.96
2023-05-04T14:45:21.729Z,30.08
2023-05-04T14:47:54.557Z,30.04
2023-05-04T14:50:24.587Z,30.03
2023-05-04T14:52:54.555Z,29.95
2023-05-04T14:55:24.698Z,29.92
2023-05-04T14:57:54.876Z,29.88
2023-05-04T15:00:25.186Z,29.73
2023-05-04T15:02:57.740Z,29.77
2023-05-04T15:05:27.604Z,29.85
2023-05-04T15:07:57.727Z,29.93
2023-05-04T15:10:27.837Z,30.01
2023-05-04T15:12:59.624Z,29.97
2023-05-04T15:15:29.599Z,29.87
2023-05-04T15:18:02.395Z,29.84
2023-05-04T15:20:32.560Z,29.78
2023-05-04T15:23:05.212Z,29.58
2023-05-04T15:25:37.510Z,29.48
2023-05-04T15:28:10.705Z,29.50
2023-05-04T15:30:43.292Z,29.44
2023-05-04T15:33:15.793Z,29.41
2023-05-04T15:35:48.244Z,29.39
2023-05-04T15:38:21.125Z,29.38
2023-05-04T15:40:51.104Z,29.37
2023-05-04T15:43:21.436Z,29.36
2023-05-04T15:45:52.422Z,29.23
2023-05-04T15:48:25.359Z,29.26
2023-05-04T15:50:55.237Z,29.34
2023-05-04T15:53:25.051Z,29.48
2023-05-04T15:55:54.808Z,29.57
2023-05-04T15:58:24.734Z,29.59
2023-05-04T16:00:54.856Z,29.58
2023-05-04T16:03:27.463Z,29.43
2023-05-04T16:05:57.283Z,29.28
2023-05-04T16:08:29.153Z,29.20
2023-05-04T16:10:59.387Z,29.09
2023-05-04T16:13:29.682Z,29.10
2023-05-04T16:16:00.667Z,29.17
2023-05-04T16:18:33.287Z,29.12
2023-05-04T16:21:05.539Z,29.12
2023-05-04T16:23:36.518Z,29.10
2023-05-04T16:26:06.878Z,29.10
2023-05-04T16:28:38.147Z,29.08
2023-05-04T16:31:10.331Z,28.89
2023-05-04T16:33:47.541Z,28.70
2023-05-04T16:36:17.933Z,28.65
2023-05-04T16:38:47.723Z,28.67
2023-05-04T16:41:17.532Z,28.52
2023-05-04T16:43:49.400Z,28.49
2023-05-04T16:46:19.373Z,28.47
2023-05-04T16:48:52.306Z,28.50
2023-05-04T16:51:22.565Z,28.56
2023-05-04T16:53:52.369Z,28.55
2023-05-04T16:56:28.767Z,28.55
2023-05-04T16:59:01.205Z,28.49
2023-05-04T17:01:32.294Z,28.46
2023-05-04T17:04:05.006Z,28.33
2023-05-04T17:06:38.276Z,28.25
2023-05-04T17:09:08.337Z,28.19
2023-05-04T17:11:38.234Z,28.13
2023-05-04T17:14:08.134Z,28.06
2023-05-04T17:16:38.057Z,27.96
2023-05-04T17:19:11.315Z,27.82
2023-05-04T17:21:41.292Z,27.68
2023-05-04T17:24:15.385Z,27.54
2023-05-04T17:26:45.673Z,27.47
2023-05-04T17:29:15.547Z,27.43
2023-05-04T17:31:45.480Z,27.41
2023-05-04T17:34:18.079Z,27.44
2023-05-04T17:36:48.597Z,27.44
2023-05-04T17:39:19.113Z,27.40
2023-05-04T17:41:49.953Z,27.38
2023-05-04T17:44:20.124Z,27.30
2023-05-04T17:46:51.512Z,27.25
2023-05-04T17:49:23.980Z,27.13
2023-05-04T17:51:57.180Z,26.99
2023-05-04T17:54:29.705Z,26.92
2023-05-04T17:57:00.291Z,26.88
2023-05-04T17:59:38.573Z,26.79
2023-05-04T18:02:08.495Z,26.72
2023-05-04T18:04:41.742Z,26.63
2023-05-04T18:07:11.867Z,26.52
2023-05-04T18:09:41.755Z,26.43
2023-05-04T18:12:12.459Z,26.38
2023-05-04T18:14:42.293Z,26.34
2023-05-04T18:17:12.074Z,26.29
2023-05-04T18:19:44.497Z,26.22
2023-05-04T18:22:16.912Z,26.14
2023-05-04T18:24:49.404Z,26.01
2023-05-04T18:27:19.590Z,25.91
2023-05-04T18:29:49.418Z,25.84
2023-05-04T18:32:19.232Z,25.73
2023-05-04T18:34:53.397Z,25.56
2023-05-04T18:37:23.458Z,25.40
2023-05-04T18:39:53.351Z,25.29
2023-05-04T18:42:25.777Z,25.31
2023-05-04T18:44:56.384Z,25.33
2023-05-04T18:47:26.286Z,25.33
2023-05-04T18:50:00.166Z,25.35
2023-05-04T18:52:30.534Z,25.29
2023-05-04T18:55:02.777Z,25.17
2023-05-04T18:57:32.824Z,25.06
2023-05-04T19:00:02.887Z,25.03
2023-05-04T19:02:35.668Z,24.99
2023-05-04T19:05:13.722Z,24.84
2023-05-04T19:07:44.358Z,24.75
2023-05-04T19:10:14.915Z,24.63
2023-05-04T19:12:44.776Z,24.56
2023-05-04T19:15:14.945Z,24.50
2023-05-04T19:17:44.938Z,24.44
2023-05-04T19:20:19.361Z,24.39
2023-05-04T19:22:49.568Z,24.31
2023-05-04T19:25:33.206Z,24.26
2023-05-04T19:28:08.767Z,24.16
2023-05-04T19:30:42.098Z,24.08
2023-05-04T19:33:12.029Z,24.00
2023-05-04T19:35:44.756Z,23.89
2023-05-04T19:38:14.706Z,23.78
2023-05-04T19:40:44.645Z,23.71
2023-05-04T19:43:14.522Z,23.63
2023-05-04T19:45:44.768Z,23.56
2023-05-04T19:48:17.628Z,23.50
2023-05-04T19:50:50.545Z,23.44
2023-05-04T19:53:20.350Z,23.34
2023-05-04T19:55:50.321Z,23.30
2023-05-04T19:58:20.189Z,23.28
2023-05-04T20:00:50.827Z,23.22
2023-05-04T20:03:20.821Z,23.18
2023-05-04T20:05:53.589Z,23.15
2023-05-04T20:08:25.840Z,23.10
2023-05-04T20:10:59.343Z,23.03
2023-05-04T20:13:29.235Z,22.97
2023-05-04T20:16:06.875Z,22.94
2023-05-04T20:18:39.414Z,22.85
2023-05-04T20:21:11.869Z,22.79
2023-05-04T20:23:41.737Z,22.73
2023-05-04T20:26:13.391Z,22.67
2023-05-04T20:28:45.306Z,22.61
2023-05-04T20:31:15.224Z,22.53
2023-05-04T20:33:45.242Z,22.44
2023-05-04T20:36:17.818Z,22.35
2023-05-04T20:38:49.043Z,22.25
2023-05-04T20:41:19.205Z,22.14
2023-05-04T20:43:50.356Z,22.06
2023-05-04T20:46:25.856Z,21.97
2023-05-04T20:48:55.950Z,21.89
2023-05-04T20:51:28.695Z,21.80
2023-05-04T20:53:59.833Z,21.70
2023-05-04T20:56:34.673Z,21.62
2023-05-04T20:59:04.545Z,21.54
2023-05-04T21:01:43.044Z,21.42
2023-05-04T21:04:13.896Z,21.38
2023-05-04T21:06:48.817Z,21.31
2023-05-04T21:09:21.698Z,21.21
2023-05-04T21:11:51.528Z,21.11
2023-05-04T21:14:22.968Z,21.05
2023-05-04T21:16:52.812Z,20.99
2023-05-04T21:19:22.722Z,20.87
2023-05-04T21:21:55.370Z,20.79
2023-05-04T21:24:32.918Z,20.70
2023-05-04T21:27:02.982Z,20.65
2023-05-04T21:29:32.834Z,20.59
2023-05-04T21:32:04.004Z,20.58
2023-05-04T21:34:33.845Z,20.55
2023-05-04T21:37:08.855Z,20.53
2023-05-04T21:39:39.063Z,20.52
2023-05-04T21:42:09.150Z,20.51
2023-05-04T21:44:39.118Z,20.48
2023-05-04T21:47:11.445Z,20.44
2023-05-04T21:49:43.750Z,20.39
2023-05-04T21:52:16.469Z,20.32
2023-05-04T21:54:47.627Z,20.25
2023-05-04T21:57:17.596Z,20.24
2023-05-04T21:59:50.282Z,20.25
2023-05-04T22:02:20.323Z,20.20
2023-05-04T22:04:52.272Z,20.19
2023-05-04T22:07:24.744Z,20.18
2023-05-04T22:09:54.652Z,20.14
2023-05-04T22:12:26.256Z,20.10
2023-05-04T22:14:56.381Z,20.00
2023-05-04T22:17:26.312Z,19.91
2023-05-04T22:19:56.179Z,19.85
2023-05-04T22:22:28.905Z,19.81
2023-05-04T22:24:58.874Z,19.73
2023-05-04T22:27:31.252Z,19.67
2023-05-04T22:30:01.316Z,19.61
2023-05-04T22:32:31.279Z,19.59
2023-05-04T22:35:07.404Z,19.55
2023-05-04T22:37:41.281Z,19.46
2023-05-04T22:40:14.463Z,19.44
2023-05-04T22:42:45.028Z,19.42
2023-05-04T22:45:18.484Z,19.41
2023-05-04T22:47:48.619Z,19.39
2023-05-04T22:50:18.549Z,19.37
2023-05-04T22:52:51.186Z,19.37
2023-05-04T22:55:27.451Z,19.36
2023-05-04T22:57:58.372Z,19.37
2023-05-04T23:00:28.476Z,19.36
2023-05-04T23:02:58.598Z,19.35
2023-05-04T23:05:31.339Z,19.33
2023-05-04T23:08:04.012Z,19.31
2023-05-04T23:10:41.304Z,19.30
2023-05-04T23:13:11.280Z,19.25
2023-05-04T23:15:41.284Z,19.25
2023-05-04T23:18:11.251Z,19.27
2023-05-04T23:20:43.874Z,19.30
2023-05-04T23:23:16.325Z,19.33
2023-05-04T23:25:48.544Z,19.35
2023-05-04T23:28:18.996Z,19.38
2023-05-04T23:30:48.937Z,19.42
2023-05-04T23:33:21.873Z,19.40
2023-05-04T23:35:51.741Z,19.38
2023-05-04T23:38:25.682Z,19.38
2023-05-04T23:40:55.828Z,19.40
2023-05-04T23:43:28.942Z,19.40
2023-05-04T23:46:02.771Z,19.40
2023-05-04T23:48:33.577Z,19.39
2023-05-04T23:51:05.064Z,19.39
2023-05-04T23:53:39.380Z,19.39
2023-05-04T23:56:12.449Z,19.40
2023-05-04T23:58:42.267Z,19.37
